Time;durP1;ratioP1;P1;durP2;ratioP2;P2;SDS_P1;SDS_P2;PMS_P1;PMS_P2;Temp;Humidity;BMP_temperature;BMP_pressure;BME280_temperature;BME280_humidity;BME280_pressure;Samples;Min_cycle;Max_cycle;Signal;HPM_P1;HPM_P2
2022/11/10 00:00:47;;;;;;;10.25;3.55;;;9.30;99.90;;;;;;5112668;28;20088;-64
2022/11/10 00:03:14;;;;;;;11.55;3.25;;;9.30;99.90;;;;;;5115677;28;20483;-63
2022/11/10 00:05:41;;;;;;;10.23;3.15;;;9.40;99.90;;;;;;5097994;28;20051;-63
2022/11/10 00:08:11;;;;;;;6.18;3.17;;;9.50;99.90;;;;;;5098028;28;20051;-63
2022/11/10 00:13:22;;;;;;;13.35;3.72;;;9.20;99.90;;;;;;5096763;28;20039;-65
2022/11/10 00:18:33;;;;;;;11.23;3.30;;;9.10;99.90;;;;;;5097942;28;20047;-64
2022/11/10 00:21:03;;;;;;;9.57;3.30;;;9.10;99.90;;;;;;5095992;28;20059;-64
2022/11/10 00:23:30;;;;;;;9.60;3.17;;;9.00;99.90;;;;;;5115762;28;20043;-64
2022/11/10 00:25:57;;;;;;;16.40;3.33;;;9.00;99.90;;;;;;5116013;28;20400;-65
2022/11/10 00:28:26;;;;;;;11.88;3.67;;;9.00;99.90;;;;;;5096940;28;20056;-65
2022/11/10 00:30:52;;;;;;;14.02;3.72;;;9.00;99.90;;;;;;5094998;28;20120;-65
2022/11/10 00:33:19;;;;;;;9.45;4.53;;;9.00;99.90;;;;;;5097321;28;20052;-63
2022/11/10 00:35:46;;;;;;;14.30;4.13;;;9.00;99.90;;;;;;5096839;28;20052;-64
2022/11/10 00:38:13;;;;;;;11.48;3.75;;;9.10;99.90;;;;;;5096836;28;20063;-64
2022/11/10 00:40:40;;;;;;;10.40;4.10;;;9.20;99.90;;;;;;5115513;28;20119;-64
2022/11/10 00:43:07;;;;;;;8.40;3.42;;;9.20;99.90;;;;;;5113367;28;20092;-63
2022/11/10 00:45:35;;;;;;;17.60;4.28;;;9.20;99.90;;;;;;5096813;28;20047;-64
2022/11/10 00:48:02;;;;;;;11.85;3.35;;;9.20;99.90;;;;;;5094156;28;20047;-64
2022/11/10 00:50:28;;;;;;;13.40;3.92;;;9.20;99.90;;;;;;5096240;28;20063;-64
2022/11/10 00:52:55;;;;;;;14.60;4.15;;;9.20;99.90;;;;;;5096102;28;20073;-64
2022/11/10 00:55:22;;;;;;;14.38;4.03;;;9.20;99.90;;;;;;5114567;28;20055;-65
2022/11/10 00:57:49;;;;;;;13.18;4.15;;;9.10;99.90;;;;;;5096581;28;20039;-64
2022/11/10 01:00:16;;;;;;;13.02;3.00;;;9.10;99.90;;;;;;5096047;28;20052;-64
2022/11/10 01:02:45;;;;;;;12.25;3.55;;;9.20;99.90;;;;;;5096531;28;20559;-64
2022/11/10 01:05:11;;;;;;;13.77;4.43;;;9.20;99.90;;;;;;5114578;28;20485;-63
2022/11/10 01:07:38;;;;;;;13.90;4.85;;;9.20;99.90;;;;;;5096613;28;20048;-64
2022/11/10 01:10:06;;;;;;;19.50;4.80;;;9.20;99.90;;;;;;5115358;28;20044;-63
2022/11/10 01:12:33;;;;;;;16.20;4.13;;;9.10;99.90;;;;;;5113033;28;20052;-63
2022/11/10 01:15:00;;;;;;;11.57;4.95;;;9.10;99.90;;;;;;5095717;28;20101;-63
2022/11/10 01:17:27;;;;;;;13.10;4.13;;;9.10;99.90;;;;;;5096370;28;20092;-65
2022/11/10 01:19:55;;;;;;;13.40;4.43;;;9.10;99.90;;;;;;5114581;28;20089;-64
2022/11/10 01:22:22;;;;;;;12.50;4.43;;;9.10;99.90;;;;;;5094053;28;20043;-64
2022/11/10 01:24:49;;;;;;;14.38;4.22;;;9.00;99.90;;;;;;5096413;28;20502;-64
2022/11/10 01:27:15;;;;;;;11.80;4.72;;;9.00;99.90;;;;;;5095265;28;20105;-64
2022/11/10 01:29:42;;;;;;;14.73;4.70;;;9.00;99.90;;;;;;5114981;28;20069;-63
2022/11/10 01:32:09;;;;;;;10.45;4.45;;;9.00;99.90;;;;;;5114607;28;20085;-64
2022/11/10 01:34:36;;;;;;;23.95;4.93;;;8.90;99.90;;;;;;5095885;28;20077;-64
2022/11/10 01:37:04;;;;;;;15.35;4.22;;;8.90;99.90;;;;;;5114763;28;20043;-64
2022/11/10 01:39:31;;;;;;;13.35;3.90;;;8.90;99.90;;;;;;5094023;28;20052;-63
2022/11/10 01:41:58;;;;;;;16.13;4.72;;;8.90;99.90;;;;;;5094918;28;20043;-64
2022/11/10 01:44:26;;;;;;;11.75;4.80;;;8.90;99.90;;;;;;5093445;28;20097;-64
2022/11/10 01:46:52;;;;;;;12.13;4.75;;;8.80;99.90;;;;;;5096128;28;20055;-63
2022/11/10 01:49:24;;;;;;;15.60;4.80;;;8.90;99.90;;;;;;5095751;28;20051;-64
2022/11/10 01:51:54;;;;;;;20.92;5.10;;;8.90;99.90;;;;;;5095979;28;20051;-64
2022/11/10 01:54:27;;;;;;;18.75;4.90;;;8.80;99.90;;;;;;5113790;28;20047;-64
2022/11/10 01:57:02;;;;;;;16.52;4.60;;;8.80;99.90;;;;;;5095311;28;20052;-64
2022/11/10 01:59:33;;;;;;;11.55;5.03;;;8.80;99.90;;;;;;5095734;28;20077;-64
2022/11/10 02:02:06;;;;;;;17.83;5.13;;;8.80;99.90;;;;;;5094819;28;20040;-65
2022/11/10 02:04:34;;;;;;;11.82;5.07;;;8.80;99.90;;;;;;5095946;28;20044;-64
2022/11/10 02:07:01;;;;;;;11.93;5.10;;;8.80;99.90;;;;;;5095885;28;20119;-64
2022/11/10 02:09:29;;;;;;;15.55;5.22;;;8.80;99.90;;;;;;5113657;28;20047;-64
2022/11/10 02:11:57;;;;;;;13.82;6.55;;;8.80;99.90;;;;;;5112212;28;20040;-64
2022/11/10 02:14:24;;;;;;;17.08;5.55;;;8.80;99.90;;;;;;5093436;28;20047;-63
2022/11/10 02:16:51;;;;;;;17.55;5.03;;;8.80;99.90;;;;;;5094976;28;20052;-64
2022/11/10 02:19:20;;;;;;;15.52;6.20;;;8.80;99.90;;;;;;5092679;28;20124;-64
2022/11/10 02:21:48;;;;;;;13.40;6.07;;;8.80;99.90;;;;;;5095335;28;20048;-64
2022/11/10 02:24:15;;;;;;;15.07;5.38;;;8.70;99.90;;;;;;5112314;28;20036;-64
2022/11/10 02:26:46;;;;;;;13.25;5.32;;;8.80;99.90;;;;;;5095367;28;20100;-64
2022/11/10 02:29:14;;;;;;;14.23;5.25;;;8.70;99.90;;;;;;5095010;28;20044;-63
2022/11/10 02:31:41;;;;;;;15.27;5.70;;;8.70;99.90;;;;;;5094626;28;20058;-64
2022/11/10 02:34:08;;;;;;;15.40;6.55;;;8.70;99.90;;;;;;5095005;28;20101;-64
2022/11/10 02:36:35;;;;;;;15.95;4.82;;;8.70;99.90;;;;;;5093969;28;20097;-65
2022/11/10 02:39:03;;;;;;;13.85;5.15;;;8.70;99.90;;;;;;5094877;28;20104;-64
2022/11/10 02:41:30;;;;;;;15.00;5.68;;;8.70;99.90;;;;;;5094738;28;20055;-64
2022/11/10 02:43:58;;;;;;;15.85;5.03;;;8.70;99.90;;;;;;5094137;28;20105;-65
2022/11/10 02:46:25;;;;;;;12.52;5.55;;;8.70;99.90;;;;;;5113338;28;20112;-63
2022/11/10 02:48:52;;;;;;;19.63;5.20;;;8.70;99.90;;;;;;5112274;28;20073;-64
2022/11/10 02:51:19;;;;;;;17.25;5.93;;;8.70;99.90;;;;;;5109782;28;20044;-64
2022/11/10 02:53:46;;;;;;;16.65;5.88;;;8.70;99.90;;;;;;5094922;28;20105;-64
2022/11/10 02:56:14;;;;;;;15.55;5.57;;;8.70;99.90;;;;;;5111131;28;20039;-64
2022/11/10 02:58:41;;;;;;;20.77;5.97;;;8.70;99.90;;;;;;5094172;28;20084;-65
2022/11/10 03:01:08;;;;;;;19.98;5.63;;;8.70;99.90;;;;;;5113098;28;20055;-63
2022/11/10 03:03:35;;;;;;;21.20;5.63;;;8.70;99.90;;;;;;5094469;28;20067;-65
2022/11/10 03:06:02;;;;;;;20.20;5.60;;;8.70;99.90;;;;;;5091088;28;20537;-64
2022/11/10 03:08:29;;;;;;;21.17;6.38;;;8.70;99.90;;;;;;5093578;28;20499;-64
2022/11/10 03:10:56;;;;;;;18.02;5.93;;;8.70;99.90;;;;;;5094568;28;20097;-64
2022/11/10 03:13:27;;;;;;;12.38;5.32;;;8.80;99.90;;;;;;5094062;28;20039;-64
2022/11/10 03:15:53;;;;;;;17.45;5.93;;;8.80;99.90;;;;;;5112783;28;20097;-63
2022/11/10 03:18:20;;;;;;;12.60;5.32;;;8.80;99.90;;;;;;5094574;28;20487;-64
2022/11/10 03:20:49;;;;;;;13.98;6.13;;;8.80;99.90;;;;;;5111659;28;20047;-64
2022/11/10 03:23:16;;;;;;;17.88;5.47;;;8.80;99.90;;;;;;5094249;28;20146;-64
2022/11/10 03:25:44;;;;;;;19.02;5.55;;;8.80;99.90;;;;;;5091989;28;20078;-63
2022/11/10 03:28:11;;;;;;;17.45;6.82;;;8.80;99.90;;;;;;5092229;28;20487;-63
2022/11/10 03:30:40;;;;;;;18.00;5.43;;;8.80;99.90;;;;;;5094299;28;20047;-64
2022/11/10 03:33:06;;;;;;;15.23;4.82;;;8.90;99.90;;;;;;5110014;28;20043;-64
2022/11/10 03:35:34;;;;;;;13.45;5.22;;;8.80;99.90;;;;;;5112388;28;20055;-64
2022/11/10 03:38:00;;;;;;;14.93;5.10;;;8.90;99.90;;;;;;5094318;28;20044;-64
2022/11/10 03:40:28;;;;;;;17.85;4.78;;;8.90;99.90;;;;;;5093280;28;20096;-64
2022/11/10 03:42:54;;;;;;;19.10;5.93;;;8.80;99.90;;;;;;5111672;28;20495;-64
2022/11/10 03:45:21;;;;;;;12.15;6.50;;;8.80;99.90;;;;;;5094160;28;20104;-63
2022/11/10 03:47:50;;;;;;;14.73;5.55;;;8.80;99.90;;;;;;5111899;28;20097;-64
2022/11/10 03:50:17;;;;;;;19.17;5.18;;;8.80;99.90;;;;;;5093949;28;20097;-64
2022/11/10 03:52:45;;;;;;;19.35;5.45;;;8.80;99.90;;;;;;5112257;28;20075;-63
2022/11/10 03:55:14;;;;;;;18.35;5.35;;;8.80;99.90;;;;;;5092729;28;20075;-65
2022/11/10 03:57:41;;;;;;;17.50;5.13;;;8.70;99.90;;;;;;5091994;28;20451;-63
2022/11/10 04:00:09;;;;;;;17.67;5.65;;;8.70;99.90;;;;;;5112313;28;20428;-63
2022/11/10 04:02:36;;;;;;;17.85;5.78;;;8.80;99.90;;;;;;5093180;28;20088;-63
2022/11/10 04:10:41;;;;;;;15.40;5.10;;;8.80;99.90;;;;;;5093430;28;20044;-65
2022/11/10 04:15:52;;;;;;;18.00;5.93;;;8.70;99.90;;;;;;5093340;28;20044;-65
2022/11/10 04:18:23;;;;;;;21.40;5.78;;;8.70;99.90;;;;;;5112364;28;20373;-63
2022/11/10 04:20:52;;;;;;;;;;;8.70;99.90;;;;;;5094472;28;20522;-64
2022/11/10 04:23:29;;;;;;;18.90;5.53;;;8.70;99.90;;;;;;5109179;28;19981;-65
2022/11/10 04:28:43;;;;;;;16.65;5.65;;;8.80;99.90;;;;;;5092077;28;20047;-64
2022/11/10 04:31:10;;;;;;;23.10;6.68;;;8.80;99.90;;;;;;5092871;28;20047;-65
2022/11/10 04:33:38;;;;;;;15.07;6.85;;;8.90;99.90;;;;;;5093226;28;20548;-65
2022/11/10 04:36:07;;;;;;;17.75;5.55;;;8.90;99.90;;;;;;5110623;28;20567;-64
2022/11/10 04:38:34;;;;;;;17.52;5.30;;;9.00;99.90;;;;;;5111687;28;20048;-64
2022/11/10 04:41:01;;;;;;;18.17;6.22;;;9.00;99.90;;;;;;5092952;28;20109;-63
2022/11/10 04:43:28;;;;;;;19.27;5.95;;;9.00;99.90;;;;;;5110474;28;20094;-65
2022/11/10 04:45:56;;;;;;;16.35;5.97;;;9.00;99.90;;;;;;5111613;28;20056;-65
2022/11/10 04:48:23;;;;;;;17.05;5.45;;;9.10;99.90;;;;;;5096408;28;20043;-65
2022/11/10 04:50:51;;;;;;;16.88;5.75;;;9.10;99.90;;;;;;5114811;28;20040;-64
2022/11/10 04:53:19;;;;;;;23.45;6.45;;;9.10;99.90;;;;;;5097390;28;20092;-65
2022/11/10 04:55:46;;;;;;;16.50;6.13;;;9.20;99.90;;;;;;5095058;28;20110;-65
2022/11/10 04:58:14;;;;;;;17.10;6.45;;;9.20;99.90;;;;;;5095412;28;20059;-64
2022/11/10 05:00:42;;;;;;;19.92;5.85;;;9.20;99.90;;;;;;5115077;28;20487;-64
2022/11/10 05:03:11;;;;;;;18.10;5.93;;;9.20;99.90;;;;;;5115160;28;20445;-65
2022/11/10 05:05:38;;;;;;;24.08;6.07;;;9.20;99.90;;;;;;5114516;28;20568;-65
2022/11/10 05:08:06;;;;;;;16.85;6.65;;;9.20;99.90;;;;;;5115396;28;20044;-64
2022/11/10 05:10:35;;;;;;;23.55;6.40;;;9.30;99.90;;;;;;5095892;28;20140;-64
2022/11/10 05:13:03;;;;;;;15.85;5.88;;;9.30;99.90;;;;;;5114683;28;20051;-65
2022/11/10 05:15:31;;;;;;;14.57;5.90;;;9.30;99.90;;;;;;5096615;28;20051;-63
2022/11/10 05:17:58;;;;;;;17.15;6.03;;;9.30;99.90;;;;;;5094967;28;20457;-64
2022/11/10 05:20:26;;;;;;;23.67;6.65;;;9.30;99.90;;;;;;5079930;28;20578;-64
2022/11/10 05:25:40;;;;;;;25.30;6.15;;;9.30;99.90;;;;;;5088644;28;20052;-65
2022/11/10 05:28:08;;;;;;;17.73;5.55;;;9.30;99.90;;;;;;5091017;28;20055;-65
2022/11/10 05:30:36;;;;;;;17.67;5.53;;;9.30;99.90;;;;;;5090217;28;20052;-66
2022/11/10 05:33:03;;;;;;;27.17;5.85;;;9.30;99.90;;;;;;5088856;28;20058;-65
2022/11/10 05:35:30;;;;;;;16.80;6.43;;;9.30;99.90;;;;;;5108305;28;20048;-65
2022/11/10 05:37:57;;;;;;;18.63;5.75;;;9.40;99.90;;;;;;5091546;28;20047;-65
2022/11/10 05:40:25;;;;;;;20.77;6.32;;;9.30;99.90;;;;;;5076601;28;20049;-65
2022/11/10 05:42:53;;;;;;;17.27;5.88;;;9.40;99.90;;;;;;5071761;28;20382;-66
2022/11/10 05:45:21;;;;;;;27.90;6.47;;;9.40;99.90;;;;;;5065111;28;20049;-65
2022/11/10 05:47:48;;;;;;;17.20;5.15;;;9.40;99.90;;;;;;5068837;28;20048;-66
2022/11/10 05:50:15;;;;;;;20.63;5.28;;;9.40;99.90;;;;;;5067031;28;20055;-65
2022/11/10 05:52:44;;;;;;;13.73;5.40;;;9.40;99.90;;;;;;5066515;28;20049;-65
2022/11/10 05:55:12;;;;;;;20.13;6.03;;;9.50;99.90;;;;;;5071451;28;20117;-66
2022/11/10 05:57:38;;;;;;;27.05;5.60;;;9.40;99.90;;;;;;5067239;28;20052;-65
2022/11/10 06:00:09;;;;;;;18.55;5.70;;;9.40;99.90;;;;;;5071056;28;20048;-65
2022/11/10 06:02:36;;;;;;;11.52;4.55;;;9.40;99.90;;;;;;5068361;28;20124;-66
2022/11/10 06:05:03;;;;;;;17.63;4.50;;;9.40;99.90;;;;;;5061513;28;20049;-65
2022/11/10 06:07:30;;;;;;;22.95;5.75;;;9.50;99.90;;;;;;5056891;28;20101;-65
2022/11/10 06:09:57;;;;;;;15.48;5.45;;;9.50;99.90;;;;;;5072600;28;20048;-65
2022/11/10 06:12:28;;;;;;;22.55;5.60;;;9.50;99.90;;;;;;5070828;28;20048;-65
2022/11/10 06:14:55;;;;;;;12.10;4.72;;;9.40;99.90;;;;;;5068172;28;20063;-64
2022/11/10 06:17:24;;;;;;;22.52;6.25;;;9.40;99.90;;;;;;5072961;28;20052;-64
2022/11/10 06:19:51;;;;;;;18.60;4.93;;;9.40;99.90;;;;;;5060926;28;20167;-63
2022/11/10 06:22:18;;;;;;;14.05;4.70;;;9.40;99.90;;;;;;5062574;28;20082;-65
2022/11/10 06:24:45;;;;;;;14.23;5.22;;;9.50;99.90;;;;;;5067291;28;20040;-64
2022/11/10 06:27:12;;;;;;;15.10;5.65;;;9.40;99.90;;;;;;5078659;28;20052;-65
2022/11/10 06:29:39;;;;;;;16.40;5.50;;;9.40;99.90;;;;;;5067170;28;20504;-64
2022/11/10 06:32:06;;;;;;;19.73;5.75;;;9.40;99.90;;;;;;5065806;28;20507;-65
2022/11/10 06:34:34;;;;;;;18.02;5.22;;;9.50;99.90;;;;;;5067746;28;20036;-64
2022/11/10 06:37:01;;;;;;;15.43;4.65;;;9.50;99.90;;;;;;5066215;28;20044;-65
2022/11/10 06:39:27;;;;;;;19.75;5.03;;;9.40;99.90;;;;;;5070456;28;20480;-65
2022/11/10 06:41:54;;;;;;;16.20;4.63;;;9.40;99.90;;;;;;5105378;28;20491;-65
2022/11/10 06:44:21;;;;;;;29.23;5.63;;;9.40;99.90;;;;;;5087522;28;20480;-65
2022/11/10 06:46:48;;;;;;;22.98;4.93;;;9.50;99.90;;;;;;5104489;28;20560;-65
2022/11/10 06:49:15;;;;;;;20.55;5.10;;;9.50;99.90;;;;;;5091383;28;20039;-64
2022/11/10 06:51:43;;;;;;;21.27;5.68;;;9.50;99.90;;;;;;5108083;28;20039;-65
2022/11/10 06:54:10;;;;;;;19.65;5.18;;;9.60;99.90;;;;;;5103672;28;20468;-64
2022/11/10 06:56:37;;;;;;;16.02;5.70;;;9.60;99.90;;;;;;5097702;28;20047;-65
2022/11/10 06:59:04;;;;;;;31.55;5.38;;;9.60;99.90;;;;;;5088003;28;20540;-65
2022/11/10 07:01:31;;;;;;;13.07;5.15;;;9.70;99.90;;;;;;5091381;28;20056;-65
2022/11/10 07:03:58;;;;;;;16.90;4.88;;;9.70;99.90;;;;;;5091057;28;20093;-65
2022/11/10 07:06:24;;;;;;;20.85;5.00;;;9.70;99.90;;;;;;5102072;28;20487;-64
2022/11/10 07:08:53;;;;;;;21.92;4.70;;;9.80;99.90;;;;;;5086727;28;20044;-64
2022/11/10 07:11:19;;;;;;;29.90;5.35;;;9.80;99.90;;;;;;5108666;28;20396;-64
2022/11/10 07:13:46;;;;;;;14.50;5.43;;;9.80;99.90;;;;;;5094122;28;20035;-65
2022/11/10 07:16:13;;;;;;;23.30;5.75;;;9.90;99.90;;;;;;5112506;28;20093;-65
2022/11/10 07:18:40;;;;;;;26.60;6.38;;;10.00;99.90;;;;;;5111110;28;20411;-65
2022/11/10 07:21:07;;;;;;;15.55;4.68;;;9.90;99.90;;;;;;5104798;28;20047;-64
2022/11/10 07:23:34;;;;;;;21.20;5.30;;;10.00;99.90;;;;;;5112745;28;20051;-65
2022/11/10 07:26:02;;;;;;;19.23;5.15;;;10.10;99.90;;;;;;5091445;28;20121;-65
2022/11/10 07:28:29;;;;;;;11.18;4.55;;;10.10;99.90;;;;;;5094079;28;20062;-66
2022/11/10 07:30:56;;;;;;;24.95;6.40;;;10.10;99.90;;;;;;5112344;28;20048;-66
2022/11/10 07:33:23;;;;;;;23.30;6.07;;;10.20;99.90;;;;;;5093305;28;20044;-65
2022/11/10 07:35:55;;;;;;;15.80;5.50;;;10.10;99.90;;;;;;5112281;28;20100;-64
2022/11/10 07:38:23;;;;;;;22.65;5.72;;;10.10;99.90;;;;;;5112195;28;20048;-65
2022/11/10 07:40:52;;;;;;;18.58;4.88;;;10.10;99.90;;;;;;5093002;28;20508;-65
2022/11/10 07:43:20;;;;;;;18.20;5.28;;;10.10;99.90;;;;;;5093977;28;20474;-65
2022/11/10 07:45:48;;;;;;;24.05;5.75;;;10.10;99.90;;;;;;5112021;28;20044;-65
2022/11/10 07:48:16;;;;;;;23.30;5.28;;;10.10;99.90;;;;;;5093225;28;20096;-66
2022/11/10 07:50:42;;;;;;;22.92;5.72;;;10.20;99.90;;;;;;5109835;28;20096;-66
2022/11/10 07:53:11;;;;;;;13.85;4.13;;;10.30;99.90;;;;;;5093013;28;20101;-66
2022/11/10 07:55:39;;;;;;;19.08;5.32;;;10.30;99.90;;;;;;5111837;28;20054;-65
2022/11/10 07:58:07;;;;;;;19.33;5.43;;;10.50;99.90;;;;;;5093375;28;20059;-65
2022/11/10 08:00:37;;;;;;;20.45;6.35;;;10.60;99.90;;;;;;5111219;28;20051;-66
2022/11/10 08:03:06;;;;;;;17.75;5.03;;;10.70;99.90;;;;;;5109963;28;20043;-66
2022/11/10 08:05:33;;;;;;;15.23;4.72;;;10.60;99.90;;;;;;5112004;28;20082;-65
2022/11/10 08:15:22;;;;;;;16.00;4.43;;;12.10;99.90;;;;;;5109793;28;20047;-65
2022/11/10 08:17:50;;;;;;;14.52;4.60;;;12.60;99.90;;;;;;5111081;28;20048;-66
2022/11/10 08:20:17;;;;;;;15.10;3.85;;;13.40;99.90;;;;;;5110121;28;20052;-65
2022/11/10 08:22:45;;;;;;;21.33;4.53;;;14.10;99.90;;;;;;5093249;28;20048;-65
2022/11/10 08:25:11;;;;;;;18.45;5.35;;;14.90;99.90;;;;;;5097301;28;20540;-64
2022/11/10 08:27:38;;;;;;;21.95;4.43;;;15.40;99.90;;;;;;5113049;28;20040;-64
2022/11/10 08:30:07;;;;;;;12.88;4.00;;;16.00;99.90;;;;;;5108833;28;20047;-64
2022/11/10 08:32:33;;;;;;;15.82;4.20;;;16.40;99.90;;;;;;5114815;28;20491;-65
2022/11/10 08:35:02;;;;;;;15.30;4.65;;;17.00;99.90;;;;;;5096029;28;20044;-65
2022/11/10 08:37:29;;;;;;;10.05;4.22;;;17.30;99.90;;;;;;5096939;28;20058;-66
2022/11/10 08:39:56;;;;;;;14.65;4.43;;;17.60;99.90;;;;;;5115172;28;20530;-64
2022/11/10 08:42:23;;;;;;;13.30;3.65;;;18.10;99.90;;;;;;5112345;28;20043;-64
2022/11/10 08:44:49;;;;;;;12.77;3.65;;;18.40;99.90;;;;;;5096746;28;20051;-64
2022/11/10 08:47:16;;;;;;;11.75;4.05;;;18.20;99.90;;;;;;5096194;28;20560;-65
2022/11/10 08:49:43;;;;;;;17.15;5.20;;;17.40;99.90;;;;;;5114716;28;20047;-65
2022/11/10 08:52:12;;;;;;;13.15;4.43;;;16.70;99.90;;;;;;5096642;28;20092;-64
2022/11/10 08:54:39;;;;;;;11.98;3.58;;;16.10;99.90;;;;;;5094132;28;20059;-64
2022/11/10 08:57:06;;;;;;;11.07;3.42;;;15.60;99.90;;;;;;5096321;28;20048;-65
2022/11/10 08:59:33;;;;;;;14.77;4.78;;;15.60;99.90;;;;;;5115407;28;20039;-65
2022/11/10 09:02:00;;;;;;;14.25;4.57;;;16.30;99.90;;;;;;5114575;28;20055;-64
2022/11/10 09:04:27;;;;;;;15.60;3.80;;;16.80;99.90;;;;;;5095835;28;20085;-65
2022/11/10 09:06:56;;;;;;;11.18;4.00;;;17.20;99.90;;;;;;5114843;28;20047;-65
2022/11/10 09:09:26;;;;;;;10.27;3.40;;;17.60;99.90;;;;;;5095984;28;20074;-66
2022/11/10 09:11:53;;;;;;;16.52;4.50;;;17.70;99.90;;;;;;5115200;28;20043;-65
2022/11/10 09:14:20;;;;;;;15.73;4.70;;;17.80;99.90;;;;;;5096565;28;20056;-65
2022/11/10 09:16:47;;;;;;;14.60;4.03;;;17.60;99.90;;;;;;5114183;28;20093;-66
2022/11/10 09:19:13;;;;;;;12.60;4.05;;;17.80;99.90;;;;;;5112597;28;20168;-65
2022/11/10 09:21:40;;;;;;;17.00;3.53;;;18.30;99.90;;;;;;5114547;28;20055;-65
2022/11/10 09:24:08;;;;;;;18.83;4.38;;;18.80;99.90;;;;;;5112411;28;20040;-65
2022/11/10 09:26:36;;;;;;;15.20;3.88;;;19.00;99.90;;;;;;5113203;28;20191;-66
2022/11/10 09:29:03;;;;;;;13.70;4.30;;;18.50;99.90;;;;;;5112829;28;20040;-65
2022/11/10 09:31:29;;;;;;;13.38;4.38;;;18.00;99.90;;;;;;5113382;28;20556;-65
2022/11/10 09:33:58;;;;;;;11.85;4.35;;;17.50;99.90;;;;;;5114006;28;20043;-66
2022/11/10 09:36:24;;;;;;;19.48;4.57;;;17.60;99.90;;;;;;5095908;28;20068;-65
2022/11/10 09:38:51;;;;;;;14.65;4.07;;;18.30;99.90;;;;;;5113778;28;20047;-65
2022/11/10 09:41:18;;;;;;;11.95;5.07;;;18.40;99.90;;;;;;5095634;28;20093;-66
2022/11/10 09:43:58;;;;;;;12.82;4.63;;;18.50;99.90;;;;;;5095310;28;20055;-66
2022/11/10 09:46:29;;;;;;;15.93;4.30;;;18.20;99.90;;;;;;5095333;28;20043;-65
2022/11/10 09:49:04;;;;;;;16.35;5.50;;;17.80;99.90;;;;;;5095861;28;20108;-66
2022/11/10 09:51:35;;;;;;;15.02;5.07;;;16.80;99.90;;;;;;5113109;28;20047;-65
2022/11/10 09:54:05;;;;;;;13.15;4.75;;;16.00;99.90;;;;;;5113825;28;20384;-66
2022/11/10 09:56:34;;;;;;;25.10;6.68;;;15.60;99.90;;;;;;5095470;28;20044;-66
2022/11/10 09:59:05;;;;;;;15.43;5.07;;;15.30;99.90;;;;;;5094687;28;20384;-66
2022/11/10 10:01:37;;;;;;;12.73;4.80;;;15.40;99.90;;;;;;5114293;28;20449;-65
2022/11/10 10:04:15;;;;;;;12.07;5.25;;;15.50;99.90;;;;;;5110306;28;20079;-64
2022/11/10 10:06:49;;;;;;;12.43;5.72;;;15.40;99.90;;;;;;5111863;28;20494;-65
2022/11/10 10:09:25;;;;;;;13.80;6.32;;;14.80;99.90;;;;;;5111901;28;20509;-66
2022/11/10 10:12:03;;;;;;;18.15;5.57;;;14.80;99.90;;;;;;5093949;28;20054;-66
2022/11/10 10:14:56;;;;;;;15.70;5.47;;;14.80;99.90;;;;;;5093177;28;20047;-64
2022/11/10 10:17:28;;;;;;;16.00;5.68;;;14.80;99.90;;;;;;5094279;28;20403;-64
2022/11/10 10:20:00;;;;;;;12.05;5.78;;;15.00;99.90;;;;;;5113092;28;20146;-64
2022/11/10 10:22:54;;;;;;;12.82;5.55;;;15.30;99.90;;;;;;5113643;28;20356;-64
2022/11/10 10:25:24;;;;;;;12.45;5.03;;;16.00;99.90;;;;;;5113286;28;20039;-65
2022/11/10 10:27:59;;;;;;;17.73;6.13;;;15.70;99.90;;;;;;5113089;28;20043;-65
2022/11/10 10:30:27;;;;;;;15.20;5.68;;;15.60;99.90;;;;;;5094842;28;20113;-65
2022/11/10 10:33:00;;;;;;;15.90;5.10;;;15.20;99.90;;;;;;5113490;28;20464;-66
2022/11/10 10:35:28;;;;;;;13.25;5.53;;;15.00;99.90;;;;;;5092576;28;20183;-65
2022/11/10 10:37:57;;;;;;;16.30;4.63;;;15.10;99.90;;;;;;5094624;28;20047;-64
2022/11/10 10:40:25;;;;;;;15.52;5.70;;;15.60;99.90;;;;;;5094207;28;20051;-65
2022/11/10 10:42:52;;;;;;;12.73;4.90;;;15.90;99.90;;;;;;5093583;28;20415;-65
2022/11/10 10:45:22;;;;;;;14.43;5.72;;;15.70;99.90;;;;;;5093691;28;20035;-65
2022/11/10 10:47:51;;;;;;;16.88;4.85;;;15.90;99.90;;;;;;5094336;28;20047;-65
2022/11/10 10:50:41;;;;;;;21.00;6.00;;;16.30;99.90;;;;;;5110654;28;20108;-65
2022/11/10 10:53:13;;;;;;;18.27;5.55;;;16.70;99.90;;;;;;5094800;28;20537;-65
2022/11/10 10:55:46;;;;;;;12.65;4.78;;;16.70;99.90;;;;;;5091327;28;20044;-65
2022/11/10 10:58:23;;;;;;;18.98;5.57;;;16.60;99.90;;;;;;5094311;28;20402;-65
2022/11/10 11:00:52;;;;;;;15.82;4.43;;;16.80;99.90;;;;;;5094478;28;20112;-65
2022/11/10 11:03:29;;;;;;;14.07;4.60;;;17.00;99.90;;;;;;5093808;28;20048;-65
2022/11/10 11:06:06;;;;;;;18.75;4.93;;;17.10;99.90;;;;;;5093550;28;20104;-65
2022/11/10 11:08:33;;;;;;;12.95;4.28;;;17.00;99.90;;;;;;5095775;28;20069;-65
2022/11/10 11:11:08;;;;;;;15.23;4.78;;;16.60;99.90;;;;;;5098629;28;20522;-66
2022/11/10 11:13:35;;;;;;;13.80;4.47;;;16.20;99.90;;;;;;5108227;28;20071;-65
2022/11/10 11:16:06;;;;;;;16.65;5.13;;;15.90;99.90;;;;;;5109669;28;20491;-66
2022/11/10 11:18:34;;;;;;;;;;;15.70;99.90;;;;;;5085720;28;20087;-66
2022/11/10 11:21:07;;;;;;;15.13;5.00;;;15.10;99.90;;;;;;5082002;28;19927;-65
2022/11/10 11:23:54;;;;;;;17.42;4.93;;;14.80;99.90;;;;;;5107437;28;20044;-65
2022/11/10 11:26:25;;;;;;;17.40;4.35;;;14.80;99.90;;;;;;5091232;28;20560;-66
2022/11/10 11:29:03;;;;;;;12.82;4.68;;;14.50;99.90;;;;;;5086003;28;20051;-65
2022/11/10 11:31:38;;;;;;;15.38;4.63;;;14.30;99.90;;;;;;5058663;28;25306;-66
2022/11/10 11:34:14;;;;;;;17.80;5.47;;;14.20;99.90;;;;;;5070722;28;20450;-65
2022/11/10 11:36:54;;;;;;;15.10;4.82;;;14.10;99.90;;;;;;5091911;28;20052;-65
2022/11/10 11:39:31;;;;;;;19.92;4.88;;;14.00;99.90;;;;;;5085941;28;20109;-65
2022/11/10 11:42:07;;;;;;;19.60;4.68;;;14.10;99.90;;;;;;5087526;28;20510;-64
2022/11/10 11:45:00;;;;;;;14.05;4.03;;;14.00;99.90;;;;;;5087176;28;20113;-65
2022/11/10 11:47:41;;;;;;;15.02;4.30;;;14.00;99.90;;;;;;5086370;28;20051;-65
2022/11/10 11:50:21;;;;;;;14.55;4.75;;;13.90;99.90;;;;;;5104652;28;20464;-67
2022/11/10 11:52:57;;;;;;;18.08;5.20;;;13.90;99.90;;;;;;5092571;28;20056;-64
2022/11/10 11:55:33;;;;;;;18.92;4.20;;;13.90;99.90;;;;;;5103890;28;20051;-65
2022/11/10 11:58:20;;;;;;;13.30;4.18;;;14.00;99.90;;;;;;5108475;28;20044;-65
2022/11/10 12:01:01;;;;;;;19.40;4.47;;;13.90;99.90;;;;;;5092943;28;20089;-65
2022/11/10 12:03:47;;;;;;;16.63;4.70;;;14.00;99.90;;;;;;5106518;28;20048;-64
2022/11/10 12:06:40;;;;;;;12.27;4.10;;;13.90;99.90;;;;;;5090817;28;20051;-65
2022/11/10 12:09:17;;;;;;;13.10;3.60;;;13.90;99.90;;;;;;5088772;28;20079;-65
2022/11/10 12:12:01;;;;;;;16.08;3.65;;;14.00;99.90;;;;;;5088312;28;20138;-65
2022/11/10 12:14:42;;;;;;;13.50;3.55;;;13.90;99.90;;;;;;5109785;28;20479;-65
2022/11/10 12:17:17;;;;;;;17.92;4.38;;;13.90;99.90;;;;;;5094714;28;20383;-66
2022/11/10 12:19:55;;;;;;;12.77;3.72;;;13.90;99.90;;;;;;5113744;28;20043;-65
2022/11/10 12:22:33;;;;;;;15.27;4.28;;;13.90;99.90;;;;;;5116003;28;20092;-65
2022/11/10 12:25:13;;;;;;;18.38;3.67;;;13.90;99.90;;;;;;5115312;28;20096;-65
2022/11/10 12:27:45;;;;;;;19.90;4.50;;;13.90;99.90;;;;;;5115274;28;20043;-65
2022/11/10 12:30:13;;;;;;;13.60;4.07;;;13.90;99.90;;;;;;5115512;28;20414;-65
2022/11/10 12:32:45;;;;;;;18.17;3.88;;;13.90;99.90;;;;;;5097069;28;20147;-65
2022/11/10 12:35:17;;;;;;;10.93;3.72;;;14.00;99.90;;;;;;5114797;28;20411;-65
2022/11/10 12:37:49;;;;;;;16.25;4.10;;;13.90;99.90;;;;;;5111913;28;20043;-65
2022/11/10 12:40:17;;;;;;;17.52;3.97;;;13.90;99.90;;;;;;5115124;28;20055;-66
2022/11/10 12:42:46;;;;;;;18.00;3.75;;;13.90;99.90;;;;;;5112722;28;20047;-65
2022/11/10 12:45:20;;;;;;;14.35;3.63;;;13.90;99.90;;;;;;5115356;28;20040;-66
2022/11/10 12:47:48;;;;;;;17.52;4.88;;;13.90;99.90;;;;;;5096697;28;20541;-66
2022/11/10 12:50:50;;;;;;;16.70;4.07;;;13.90;99.90;;;;;;5095082;28;20100;-65
2022/11/10 12:53:23;;;;;;;21.77;3.92;;;13.90;99.90;;;;;;5115110;28;20051;-65
2022/11/10 12:55:55;;;;;;;16.70;3.75;;;13.90;99.90;;;;;;5096333;28;20043;-65
2022/11/10 12:58:22;;;;;;;13.07;3.78;;;13.90;99.90;;;;;;5115359;28;20082;-66
2022/11/10 13:00:56;;;;;;;12.50;3.65;;;13.90;99.90;;;;;;5094883;28;20097;-66
2022/11/10 13:03:29;;;;;;;20.05;3.80;;;13.90;99.90;;;;;;5114719;28;20081;-65
2022/11/10 13:05:59;;;;;;;21.70;4.50;;;13.90;99.90;;;;;;5114430;28;20052;-65
2022/11/10 13:08:31;;;;;;;20.08;4.35;;;13.90;99.90;;;;;;5113613;28;20047;-65
2022/11/10 13:11:02;;;;;;;17.52;4.10;;;13.90;99.90;;;;;;5096382;28;20053;-66
2022/11/10 13:13:29;;;;;;;;;;;13.80;99.90;;;;;;5097398;28;20043;-66
2022/11/10 13:15:58;;;;;;;14.38;3.67;;;13.80;99.90;;;;;;5114306;28;19942;-66
2022/11/10 13:18:55;;;;;;;19.27;4.28;;;13.80;99.90;;;;;;5112464;28;20559;-64
2022/11/10 13:21:55;;;;;;;14.23;2.85;;;13.90;99.90;;;;;;5096175;28;20047;-66